Aérodrome :
LOGIN :

S'inscrire | Disclaimer

   EN    FR    IT 

 










Légende :    VFR   VFR Marginal   IFR   IFR Intensif   IFR Très Intensif
Visi : 
Plafond : 
>= 8 km
>= 3000ft
5 à 8 km
1000 à 3000 ft
1500m à 5 km
500 à 1000 ft
800 à 1500m
200 à 500 ft
< 800m
< 200 ft
Symboles :   Orages  Brouillard  Fortes neiges  Fortes précipitations  Vent > 20 kt
SIGMETs :   Divers  Orages  Givrage  Turbulence  Onde Orograph.  Cendres Volcan.







- Altitude de l'aérodrome : 12 ft
- Code IATA : BCN


LEBL - Barcelone

DERNIER METAR :
  • 241530Z 03006KT 7000 RA FEW015 SCT025 BKN032 11/07 Q1013 NOSIG

METARs EXPIRÉS :
  • 241500Z 03007KT 360V060 9000 -RA FEW015 SCT025 BKN032 11/07 Q1013 NOSIG
  • 241430Z 03007KT 360V070 9999 -RA FEW015 SCT025 BKN035 11/06 Q1013 NOSIG
  • 241400Z 04008KT 9999 -RA FEW015 SCT025 BKN050 11/07 Q1013 NOSIG
  • 241330Z 04009KT 9999 -RA FEW015 SCT025 11/07 Q1014 NOSIG
  • 241300Z 06009KT 9999 -RA FEW015 SCT035 11/09 Q1014 NOSIG

TAF TAF LEBL
Valide du 24 à 12h jusqu'au 25 à 12h UTC


241100Z 2412/2512 06008KT 9999 SCT035 TX15/2413Z TN09/2507Z
TEMPO 2412/2512 4000 SHRA FEW022TCU BKN025
PROB40
TEMPO 2416/2503 3000 TS +SHRA BKN020 SCT022CB
PROB40
TEMPO 2416/2420 34015KT
PROB40
TEMPO 2421/2424 07030G43KT
BECMG 2500/2502 24015G30KT
Pas de NOTAMs connus pour ce terrain.
1 SIGMET publié pour la FIR Barcelona (LECB) :
 
Turbulence forte
LECB BARCELONA FIR/UIR SEV TURB FCST WI N3920 W00120 - N3710 E00010 - N3630 W00130 - N3720 W00140 FL200/250 STNR NC=



MET'MAP, la Météo Aéronautique d'un coup d'oeil ! - Copyright ORBIFLY Décembre 2007 - Disclaimer

ORBIFLY MET'MAP TEAM :

Programmation & Développement : Alexandra Zaïnal
Conception & Développement : Baudouin d'Aumeries
Co-Programmation & Développement : Marc-Olivier Méhu
Soutien technique & logistique : Manuel Goepfert

Contact : metmap@orbifly.com




SOURCES & CREDITS :

   NOAA